RPMR

General Santos International Airport

General Santos, Philippines
TAF RPMR 221100Z 2212/2312 16008KT 9999 FEW018 SCT080 BKN250 TEMPO 2212/2218 34005KT 9000 -SHRA FEW017CB SCT018 BKN080
Issued Valid From Valid To
Jan-22 @ 11:00 UTC
(6 hours ago)
Jan-22 @ 12:00 UTC
(5 hours ago)
Jan-23 @ 12:00 UTC
(in 19 hours)
Jan-22 @ 12:00 to Jan-23 @ 12:00
TAF RPMR 221100Z 2212/2312 16008KT 9999 FEW018 SCT080 BKN250
Wind Visibility Clouds
160° at 8 knots 10,000+ meters
  • Few at 1,800' AGL
  • Scattered at 8,000' AGL
  • Broken at 25,000' AGL
Temporary Jan-22 @ 12:00 to Jan-22 @ 18:00
TEMPO 2212/2218 34005KT 9000 -SHRA FEW017CB SCT018 BKN080
Wind Visibility Clouds Conditions
340° at 5 knots 8,996 meters
  • Few at 1,700' AGL
  • Scattered at 1,800' AGL
  • Broken at 8,000' AGL
  • Light Rain
TAF RPMR 221100Z 2212/2312 16008KT 9999 FEW018 SCT080 BKN250 TEMPO 2212/2218 34005KT 9000 -SHRA FEW017CB SCT018 BKN080
Issued Jan-22 @ 11:00 UTC
(6 hours ago)
Valid From Jan-22 @ 12:00 UTC
(5 hours ago)
Valid To Jan-23 @ 12:00 UTC
(in 19 hours)
Jan-22 @ 12:00 - Jan-23 @ 12:00
Wind Visibility
160° at 8 knots 10,000+ meters
Clouds
  • Few at 1,800' AGL
  • Scattered at 8,000' AGL
  • Broken at 25,000' AGL
Temporary Jan-22 @ 12:00 - Jan-22 @ 18:00
Wind Visibility
340° at 5 knots 8,996 meters
Clouds
  • Few at 1,700' AGL
  • Scattered at 1,800' AGL
  • Broken at 8,000' AGL
Conditions
  • Light Rain